Time;durP1;ratioP1;P1;durP2;ratioP2;P2;SDS_P1;SDS_P2;PMS_P1;PMS_P2;Temp;Humidity;BMP_temperature;BMP_pressure;BME280_temperature;BME280_humidity;BME280_pressure;Samples;Min_cycle;Max_cycle;Signal;HPM_P1;HPM_P2
2022/04/08 00:00:37;;;;;;;3.40;0.52;;;;;;;9.03;75.31;93710.06;5031140;28;20033;-64
2022/04/08 00:03:02;;;;;;;0.57;0.40;;;;;;;8.62;75.98;93676.50;5031305;28;20052;-64
2022/04/08 00:05:28;;;;;;;1.17;0.40;;;;;;;8.68;74.77;93646.81;5031478;28;20052;-64
2022/04/08 00:07:53;;;;;;;0.77;0.52;;;;;;;8.52;75.45;93591.00;5031106;28;20116;-64
2022/04/08 00:10:19;;;;;;;1.25;0.65;;;;;;;10.20;75.64;93868.97;5030803;28;20029;-64
2022/04/08 00:12:44;;;;;;;0.50;0.50;;;;;;;8.62;76.63;93674.63;5031222;28;20025;-64
2022/04/08 00:15:10;;;;;;;0.90;0.70;;;;;;;10.49;75.04;93844.03;5031309;28;20587;-64
2022/04/08 00:17:35;;;;;;;0.60;0.50;;;;;;;9.17;75.69;93725.69;5031067;28;20026;-64
2022/04/08 00:20:01;;;;;;;2.33;0.93;;;;;;;9.62;74.45;93680.47;5030935;28;20056;-64
2022/04/08 00:22:27;;;;;;;3.33;1.45;;;;;;;8.94;74.35;93595.38;5031155;28;20096;-64
2022/04/08 00:24:53;;;;;;;0.77;0.57;;;;;;;9.30;75.90;93706.78;5031170;28;20024;-64
2022/04/08 00:27:18;;;;;;;1.42;0.90;;;;;;;9.50;76.00;93781.34;5030845;28;20061;-64
2022/04/08 00:29:43;;;;;;;1.40;0.80;;;;;;;9.02;75.39;93636.94;5031146;28;20474;-64
2022/04/08 00:32:09;;;;;;;2.13;0.70;;;;;;;9.20;75.53;93703.81;5030793;28;20026;-64
2022/04/08 00:34:35;;;;;;;1.55;0.55;;;;;;;8.25;77.13;93640.03;5031181;28;20446;-64
2022/04/08 00:37:00;;;;;;;1.60;0.68;;;;;;;8.82;77.76;93741.97;5030941;28;20617;-64
2022/04/08 00:39:25;;;;;;;0.70;0.70;;;;;;;8.23;78.12;93630.84;5032238;28;20029;-65
2022/04/08 00:41:51;;;;;;;0.50;0.32;;;;;;;9.85;76.77;93840.94;5017101;28;20022;-65
2022/04/08 00:44:17;;;;;;;0.93;0.70;;;;;;;8.69;74.66;93696.06;5035525;28;20036;-65
2022/04/08 00:46:43;;;;;;;1.88;0.98;;;;;;;8.15;76.18;93658.19;5034926;28;20033;-66
2022/04/08 00:49:09;;;;;;;4.68;1.08;;;;;;;9.20;74.55;93736.41;5034813;28;20021;-63
2022/04/08 00:51:35;;;;;;;1.63;0.70;;;;;;;9.39;76.89;93865.94;5034420;28;20637;-65
2022/04/08 00:54:04;;;;;;;1.05;0.60;;;;;;;8.67;76.82;93804.31;5017120;28;20067;-64
2022/04/08 00:56:31;;;;;;;3.88;0.77;;;;;;;8.08;76.50;93722.25;5034782;28;20036;-64
2022/04/08 00:58:57;;;;;;;1.55;0.80;;;;;;;8.26;75.91;93702.50;5034700;28;20056;-64
2022/04/08 01:01:24;;;;;;;3.70;0.82;;;;;;;7.92;77.37;93697.44;5034198;28;20026;-64
2022/04/08 01:03:52;;;;;;;2.38;1.55;;;;;;;8.49;78.02;93779.00;5034582;28;20486;-65
2022/04/08 01:06:21;;;;;;;2.25;0.98;;;;;;;8.05;76.84;93707.78;5034878;28;20060;-65
2022/04/08 01:08:51;;;;;;;3.83;1.00;;;;;;;8.35;78.07;93776.63;5034449;28;20113;-64
2022/04/08 01:11:16;;;;;;;2.85;1.17;;;;;;;9.45;77.56;93872.59;5034003;28;20470;-64
2022/04/08 01:13:42;;;;;;;0.68;0.50;;;;;;;9.07;78.02;93883.38;5034517;28;20074;-66
2022/04/08 01:16:08;;;;;;;3.10;0.88;;;;;;;7.77;78.37;93712.78;5034495;28;20100;-65
2022/04/08 01:18:34;;;;;;;3.35;1.15;;;;;;;9.47;76.87;93901.44;5016515;28;20056;-65
2022/04/08 01:21:07;;;;;;;3.35;1.27;;;;;;;7.84;77.32;93677.88;5034033;28;20097;-65
2022/04/08 01:23:34;;;;;;;1.13;0.85;;;;;;;7.78;77.53;93666.72;5034309;28;20695;-65
2022/04/08 01:26:06;;;;;;;1.80;0.93;;;;;;;7.62;78.83;93686.09;5034399;28;20068;-65
2022/04/08 01:28:31;;;;;;;5.03;1.20;;;;;;;7.92;76.77;93739.78;5033989;28;20045;-65
2022/04/08 01:30:57;;;;;;;5.13;1.23;;;;;;;8.03;76.98;93715.25;5033518;28;20033;-65
2022/04/08 01:33:22;;;;;;;3.38;1.52;;;;;;;8.23;76.91;93742.84;5034049;28;20028;-66
2022/04/08 01:35:48;;;;;;;4.75;1.30;;;;;;;8.32;76.29;93727.69;5033954;28;20034;-65
2022/04/08 01:38:13;;;;;;;4.32;1.48;;;;;;;7.89;76.74;93693.56;5034048;28;20091;-65
2022/04/08 01:40:38;;;;;;;3.90;1.20;;;;;;;7.58;76.62;93696.56;5033697;28;20022;-65
2022/04/08 01:43:04;;;;;;;6.63;1.17;;;;;;;8.48;76.97;93859.63;5034012;28;20029;-64
2022/04/08 01:45:29;;;;;;;1.92;1.02;;;;;;;7.06;77.58;93688.84;5033946;28;20459;-65
2022/04/08 01:47:55;;;;;;;3.45;1.55;;;;;;;7.46;77.61;93710.44;5033837;28;20028;-64
2022/04/08 01:50:22;;;;;;;7.35;1.92;;;;;;;8.87;76.42;93955.75;5033264;28;20049;-64
2022/04/08 01:52:47;;;;;;;4.80;1.30;;;;;;;8.49;77.02;93874.41;5033756;28;20381;-65
2022/04/08 01:55:13;;;;;;;6.75;1.80;;;;;;;8.02;75.56;93720.88;5033729;28;20100;-64
2022/04/08 01:57:38;;;;;;;9.95;1.80;;;;;;;7.85;76.92;93781.91;5033571;28;20412;-64
2022/04/08 02:00:05;;;;;;;5.40;1.60;;;;;;;7.95;78.11;93859.09;5033115;28;20021;-65
2022/04/08 02:02:30;;;;;;;5.90;1.73;;;;;;;8.10;78.52;93880.84;5033294;28;20258;-64
2022/04/08 02:04:56;;;;;;;4.03;1.13;;;;;;;8.62;77.95;93958.22;5033583;28;20155;-64
2022/04/08 02:07:21;;;;;;;7.75;2.20;;;;;;;7.20;77.22;93729.06;5033450;28;20091;-64
2022/04/08 02:09:47;;;;;;;5.88;1.88;;;;;;;7.17;78.31;93735.00;5033310;28;20026;-64
2022/04/08 02:12:12;;;;;;;4.50;1.92;;;;;;;8.62;78.84;93944.97;5033027;28;20030;-64
2022/04/08 02:14:38;;;;;;;9.60;2.42;;;;;;;7.56;79.03;93794.75;5033106;28;20028;-64
2022/04/08 02:17:04;;;;;;;6.80;2.20;;;;;;;8.51;79.32;93954.41;5032151;28;20048;-64
2022/04/08 02:19:29;;;;;;;8.13;2.75;;;;;;;8.11;79.71;93904.34;5032816;28;20032;-64
2022/04/08 02:21:55;;;;;;;10.77;3.50;;;;;;;7.76;78.26;93772.09;5032822;28;20022;-64
2022/04/08 02:24:20;;;;;;;8.02;2.80;;;;;;;8.43;78.42;93955.97;5033120;28;20029;-64
2022/04/08 02:26:46;;;;;;;9.18;2.53;;;;;;;6.61;79.35;93694.56;5032990;28;20108;-64
2022/04/08 02:29:11;;;;;;;6.43;1.40;;;;;;;8.23;80.36;94007.75;5015217;28;20035;-64
2022/04/08 02:31:38;;;;;;;12.23;2.33;;;;;;;7.37;79.58;93820.84;5032796;28;20021;-66
2022/04/08 02:34:03;;;;;;;11.88;3.28;;;;;;;8.25;78.26;93957.13;5032792;28;20480;-69
2022/04/08 02:36:28;;;;;;;7.82;2.60;;;;;;;8.26;78.84;93937.47;5032852;28;20021;-64
2022/04/08 02:38:54;;;;;;;5.95;1.95;;;;;;;7.88;77.61;93914.38;5032755;28;20030;-64
2022/04/08 02:41:19;;;;;;;11.35;3.03;;;;;;;7.36;77.28;93792.81;5032522;28;20033;-64
2022/04/08 02:43:44;;;;;;;9.48;2.95;;;;;;;7.28;77.36;93793.63;5014889;28;20026;-64
2022/04/08 02:46:10;;;;;;;6.05;1.98;;;;;;;6.85;77.53;93799.75;5032691;28;20025;-64
2022/04/08 02:48:35;;;;;;;7.60;2.13;;;;;;;8.16;78.32;94033.19;5032497;28;20525;-64
2022/04/08 02:51:00;;;;;;;9.13;1.52;;;;;;;8.14;78.26;94025.56;5032468;28;20108;-65
2022/04/08 02:53:26;;;;;;;4.28;1.30;;;;;;;7.01;77.84;93843.16;5032569;28;20025;-64
2022/04/08 02:55:51;;;;;;;12.02;2.78;;;;;;;7.49;77.67;93873.88;5032669;28;20026;-65
2022/04/08 02:58:17;;;;;;;7.30;1.92;;;;;;;6.91;77.75;93850.59;5032401;28;20022;-64
2022/04/08 03:00:42;;;;;;;14.05;2.67;;;;;;;7.55;77.73;93914.16;5032393;28;20033;-64
2022/04/08 03:03:08;;;;;;;10.45;3.33;;;;;;;7.70;77.25;93887.19;5031765;28;20104;-64
2022/04/08 03:05:33;;;;;;;13.20;3.80;;;;;;;7.92;76.79;93906.59;5032341;28;20032;-65
2022/04/08 03:07:58;;;;;;;13.10;2.22;;;;;;;6.79;78.60;93811.56;5032281;28;20071;-64
2022/04/08 03:10:24;;;;;;;17.38;3.67;;;;;;;7.58;78.47;93912.78;5031786;28;20043;-65
2022/04/08 03:12:49;;;;;;;9.95;3.75;;;;;;;6.83;77.00;93809.88;5032259;28;20026;-65
2022/04/08 03:15:15;;;;;;;9.57;3.90;;;;;;;8.50;76.46;94027.06;5032237;28;20021;-65
2022/04/08 03:17:41;;;;;;;10.40;3.92;;;;;;;8.15;75.77;93973.38;5032025;28;20037;-65
2022/04/08 03:20:07;;;;;;;9.98;2.50;;;;;;;7.90;77.87;93983.69;5014006;28;20026;-65
2022/04/08 03:22:33;;;;;;;12.45;2.80;;;;;;;7.01;78.17;93876.72;5032024;28;20470;-65
2022/04/08 03:24:58;;;;;;;9.43;1.67;;;;;;;7.59;77.58;93949.50;5032120;28;20531;-65
2022/04/08 03:27:24;;;;;;;9.55;3.20;;;;;;;7.00;78.25;93920.09;5031768;28;20030;-65
2022/04/08 03:29:50;;;;;;;11.48;2.10;;;;;;;7.10;77.80;93963.97;5031955;28;20387;-65
2022/04/08 03:32:15;;;;;;;5.90;1.42;;;;;;;6.04;79.07;93844.41;5031502;28;20124;-65
2022/04/08 03:34:41;;;;;;;7.15;1.85;;;;;;;6.68;77.55;93900.97;5031799;28;20025;-65
2022/04/08 03:37:06;;;;;;;5.80;1.80;;;;;;;6.29;78.32;93859.56;5031653;28;20181;-65
2022/04/08 03:39:32;;;;;;;7.35;2.20;;;;;;;7.30;78.75;93980.00;5031781;28;20041;-65
2022/04/08 03:41:57;;;;;;;10.40;2.72;;;;;;;7.76;77.98;94078.38;5031274;28;20026;-65
2022/04/08 03:44:23;;;;;;;7.00;3.47;;;;;;;7.09;78.68;93902.38;5031660;28;20044;-64
2022/04/08 03:46:48;;;;;;;8.85;3.25;;;;;;;6.56;77.26;93831.34;5031487;28;20114;-65
2022/04/08 03:49:14;;;;;;;8.48;2.60;;;;;;;7.35;78.12;93981.72;5031577;28;20034;-65
2022/04/08 03:51:44;;;;;;;7.82;2.47;;;;;;;7.54;78.14;93974.25;5031188;28;20033;-65
2022/04/08 03:54:10;;;;;;;7.90;3.10;;;;;;;7.62;76.18;93950.72;5031655;28;20025;-65
2022/04/08 03:56:36;;;;;;;5.05;1.50;;;;;;;6.84;77.03;93906.56;5031488;28;20025;-65
2022/04/08 03:59:03;;;;;;;2.33;0.90;;;;;;;7.19;77.46;94028.22;5031282;28;20036;-65
2022/04/08 04:01:28;;;;;;;11.90;2.90;;;;;;;6.88;76.01;93867.88;5031110;28;20071;-65
2022/04/08 04:03:54;;;;;;;9.25;3.20;;;;;;;8.06;76.13;94050.97;5031360;28;20025;-65
2022/04/08 04:06:19;;;;;;;7.80;2.05;;;;;;;6.75;76.93;93885.41;5031140;28;20045;-65
2022/04/08 04:08:45;;;;;;;7.38;1.92;;;;;;;7.27;75.50;93964.78;5031217;28;20044;-64
2022/04/08 04:11:17;;;;;;;11.45;2.55;;;;;;;7.19;76.34;93936.44;5030710;28;20403;-65
2022/04/08 04:13:42;;;;;;;;;;;;;;;8.28;75.17;94057.16;5031656;28;20072;-64
2022/04/08 04:16:08;;;;;;;10.27;2.83;;;;;;;8.28;74.85;94036.72;5031270;28;19913;-64
2022/04/08 04:18:34;;;;;;;9.88;1.88;;;;;;;7.65;74.47;93987.94;5031025;28;20029;-65
2022/04/08 04:20:59;;;;;;;9.77;2.67;;;;;;;7.36;75.91;93988.56;5013105;28;20057;-64
2022/04/08 04:23:25;;;;;;;5.13;2.28;;;;;;;8.08;74.99;94080.53;5031162;28;20022;-65
2022/04/08 04:25:50;;;;;;;10.52;2.90;;;;;;;7.73;75.60;94010.22;5031133;28;20033;-64
2022/04/08 04:28:16;;;;;;;10.18;2.50;;;;;;;8.20;74.92;94039.41;5030927;28;20030;-64
2022/04/08 04:30:42;;;;;;;9.50;2.13;;;;;;;7.11;74.47;93912.63;5030647;28;20063;-65
2022/04/08 04:33:08;;;;;;;8.98;2.17;;;;;;;7.64;73.80;94007.56;5030934;28;20087;-64
2022/04/08 04:35:38;;;;;;;7.40;1.60;;;;;;;6.88;75.06;93930.53;5031071;28;20021;-65
2022/04/08 04:38:04;;;;;;;13.05;2.88;;;;;;;8.24;74.59;94072.91;5030781;28;20065;-65
2022/04/08 04:40:29;;;;;;;5.93;1.63;;;;;;;6.47;75.36;93865.66;5030634;28;20037;-65
2022/04/08 04:42:55;;;;;;;3.53;1.67;;;;;;;6.47;74.75;93894.72;5030810;28;20025;-66
2022/04/08 04:45:22;;;;;;;13.73;2.72;;;;;;;8.28;74.26;94068.53;5030664;28;20108;-65
2022/04/08 04:47:48;;;;;;;10.63;2.85;;;;;;;8.05;74.28;94085.72;5030582;28;20475;-66
2022/04/08 04:50:13;;;;;;;8.10;2.22;;;;;;;7.37;73.39;93918.72;5030423;28;20025;-65
2022/04/08 04:52:38;;;;;;;7.55;2.45;;;;;;;8.16;72.83;94092.22;5030877;28;20399;-65
2022/04/08 04:55:05;;;;;;;10.68;1.70;;;;;;;7.27;72.92;93940.97;5030720;28;20390;-65
2022/04/08 04:57:31;;;;;;;8.23;1.70;;;;;;;6.83;74.75;93933.31;5030583;28;20030;-65
2022/04/08 04:59:56;;;;;;;9.15;2.03;;;;;;;6.45;74.40;93904.81;5012999;28;20105;-65
2022/04/08 05:02:22;;;;;;;8.13;2.65;;;;;;;8.49;73.93;94132.25;5030231;28;20068;-65
2022/04/08 05:04:47;;;;;;;5.82;1.77;;;;;;;7.13;75.02;93950.91;5030615;28;20032;-65
2022/04/08 05:07:13;;;;;;;7.63;2.05;;;;;;;6.77;75.36;93951.97;5030617;28;20598;-65
2022/04/08 05:09:39;;;;;;;8.40;2.42;;;;;;;6.80;74.77;93942.63;5030420;28;20552;-64
2022/04/08 05:12:06;;;;;;;10.00;1.80;;;;;;;7.97;75.67;94120.91;5030117;28;20076;-65
2022/04/08 05:14:31;;;;;;;5.50;1.48;;;;;;;6.33;75.77;93936.31;5030470;28;20032;-65
2022/04/08 05:16:58;;;;;;;5.40;1.40;;;;;;;7.55;76.36;94104.69;5030376;28;20022;-65
2022/04/08 05:19:24;;;;;;;6.65;1.70;;;;;;;7.20;75.68;94033.19;5030307;28;20382;-65
2022/04/08 05:21:49;;;;;;;9.40;1.58;;;;;;;6.43;75.01;93942.09;5030056;28;20025;-65
2022/04/08 05:24:15;;;;;;;4.97;1.02;;;;;;;6.25;75.46;93880.53;5029656;28;20044;-67
2022/04/08 05:26:40;;;;;;;9.48;1.88;;;;;;;6.66;75.35;93921.63;5033312;28;20029;-65
2022/04/08 05:29:06;;;;;;;5.72;1.55;;;;;;;7.03;75.49;93996.94;5034084;28;20061;-65
2022/04/08 05:31:31;;;;;;;6.50;1.98;;;;;;;7.21;75.96;94082.34;5015875;28;20458;-64
2022/04/08 05:33:56;;;;;;;6.07;1.50;;;;;;;7.94;75.72;94185.88;5034304;28;20029;-66
2022/04/08 05:36:22;;;;;;;5.13;1.40;;;;;;;6.02;75.29;93923.91;5016351;28;20033;-64
2022/04/08 05:38:48;;;;;;;8.18;1.88;;;;;;;7.76;76.22;94100.34;5026317;28;20037;-64
2022/04/08 05:41:14;;;;;;;6.28;1.75;;;;;;;7.77;75.78;94149.53;5014385;28;20355;-66
2022/04/08 05:43:44;;;;;;;6.85;1.90;;;;;;;6.83;75.60;94015.25;5014148;28;20057;-66
2022/04/08 05:46:10;;;;;;;10.98;2.55;;;;;;;7.23;74.57;94014.09;5014120;28;20479;-66
2022/04/08 05:48:35;;;;;;;8.07;2.10;;;;;;;6.76;74.81;93920.56;4996565;28;20040;-66
2022/04/08 05:51:01;;;;;;;7.80;2.20;;;;;;;7.49;74.85;94056.44;5013474;28;20053;-66
2022/04/08 05:53:26;;;;;;;9.38;2.50;;;;;;;7.34;74.58;94019.84;5013509;28;20048;-67
2022/04/08 05:55:54;;;;;;;9.85;2.35;;;;;;;7.00;74.87;93957.88;5013841;28;20026;-66
2022/04/08 05:58:19;;;;;;;4.95;2.00;;;;;;;6.92;74.64;93984.34;5013792;28;20096;-66
2022/04/08 06:00:46;;;;;;;7.65;2.50;;;;;;;7.17;75.07;94011.91;5013389;28;20470;-66
2022/04/08 06:03:11;;;;;;;10.43;2.67;;;;;;;7.46;73.19;93947.78;5013968;28;20105;-66
2022/04/08 06:05:37;;;;;;;7.60;2.58;;;;;;;9.61;71.16;94186.78;5013785;28;20116;-66
2022/04/08 06:08:04;;;;;;;8.07;2.17;;;;;;;8.11;71.84;93972.44;5013608;28;20084;-66
2022/04/08 06:10:29;;;;;;;9.02;2.05;;;;;;;8.16;72.09;94012.78;5012974;28;20040;-66
2022/04/08 06:12:55;;;;;;;9.02;2.42;;;;;;;9.14;73.33;94156.88;5013696;28;20026;-66
2022/04/08 06:15:21;;;;;;;11.57;2.28;;;;;;;9.30;72.12;94191.63;5013543;28;20022;-66
2022/04/08 06:17:47;;;;;;;9.88;2.50;;;;;;;9.70;71.01;94200.03;5013123;28;20030;-66
2022/04/08 06:20:16;;;;;;;10.48;3.00;;;;;;;9.53;72.12;94162.97;5013129;28;20022;-65
2022/04/08 06:22:41;;;;;;;10.07;3.63;;;;;;;9.18;70.60;93982.69;5013626;28;20490;-65
2022/04/08 06:25:14;;;;;;;15.43;3.78;;;;;;;8.74;68.78;93936.31;5021141;28;20112;-66
2022/04/08 06:27:40;;;;;;;10.25;3.60;;;;;;;8.88;69.83;93973.22;5013551;28;20044;-66
2022/04/08 06:30:10;;;;;;;16.05;4.40;;;;;;;9.93;68.95;94001.31;5012493;28;20030;-69
2022/04/08 06:32:37;;;;;;;10.50;4.13;;;;;;;9.96;68.18;94080.34;4995842;28;20065;-64
2022/04/08 06:35:03;;;;;;;16.42;3.88;;;;;;;10.28;67.51;94072.75;5013153;28;20050;-64
2022/04/08 06:37:29;;;;;;;9.77;3.60;;;;;;;9.73;68.95;94050.69;5011910;28;20475;-65
2022/04/08 06:39:55;;;;;;;7.55;3.38;;;;;;;10.19;69.62;94157.06;5025230;28;20049;-67
2022/04/08 06:42:21;;;;;;;7.25;3.10;;;;;;;8.61;70.13;93966.50;5032545;28;20032;-63
2022/04/08 06:44:47;;;;;;;6.90;2.60;;;;;;;9.85;71.21;94194.16;5032839;28;20032;-62
2022/04/08 06:47:12;;;;;;;6.95;1.98;;;;;;;8.91;71.45;94105.97;5032963;28;20021;-63
2022/04/08 06:49:43;;;;;;;8.38;2.55;;;;;;;9.13;71.60;94069.66;5032514;28;20056;-63
2022/04/08 06:52:09;;;;;;;11.82;2.45;;;;;;;9.43;71.13;94124.28;5032219;28;20049;-63
2022/04/08 06:54:35;;;;;;;5.90;1.85;;;;;;;8.60;70.22;93968.38;5031674;28;20025;-61
2022/04/08 06:57:00;;;;;;;6.38;2.53;;;;;;;8.61;69.32;93961.22;5032663;28;20024;-63
2022/04/08 06:59:26;;;;;;;6.00;2.38;;;;;;;9.99;69.42;94159.41;5032564;28;20065;-62
2022/04/08 07:01:51;;;;;;;6.50;2.30;;;;;;;9.85;69.16;94055.28;5032272;28;20101;-61
2022/04/08 07:04:16;;;;;;;6.95;2.22;;;;;;;9.44;68.77;94011.72;5032530;28;20104;-62
2022/04/08 07:06:43;;;;;;;6.38;2.45;;;;;;;8.96;69.24;93999.69;5014667;28;20107;-63
2022/04/08 07:09:08;;;;;;;4.80;1.98;;;;;;;8.30;69.89;93955.06;5031187;28;20033;-63
2022/04/08 07:11:34;;;;;;;9.55;2.30;;;;;;;10.26;68.48;94120.91;5031880;28;20532;-63
2022/04/08 07:14:01;;;;;;;7.25;2.25;;;;;;;9.61;67.84;94006.25;5032355;28;20021;-62
2022/04/08 07:16:27;;;;;;;7.00;2.35;;;;;;;9.45;66.88;93940.81;4994477;28;20037;-64
2022/04/08 07:18:53;;;;;;;6.35;2.03;;;;;;;11.26;66.46;94171.38;5027581;28;20037;-63
2022/04/08 07:21:18;;;;;;;5.15;2.45;;;;;;;9.73;66.49;93965.72;5031551;28;20025;-63
2022/04/08 07:23:44;;;;;;;8.43;2.30;;;;;;;10.82;66.06;94078.75;5031690;28;20367;-63
2022/04/08 07:26:09;;;;;;;5.78;1.95;;;;;;;8.78;67.96;93984.97;5011857;28;20021;-62
2022/04/08 07:28:35;;;;;;;6.13;1.95;;;;;;;9.09;69.19;94000.53;5011928;28;20064;-63
2022/04/08 07:31:00;;;;;;;7.38;2.63;;;;;;;8.85;68.89;93909.13;5011723;28;20025;-63
2022/04/08 07:33:26;;;;;;;8.00;2.28;;;;;;;9.04;68.51;93972.34;5011927;28;20025;-63
2022/04/08 07:35:51;;;;;;;7.82;1.70;;;;;;;8.72;69.58;93928.72;4994038;28;20053;-62
2022/04/08 07:38:16;;;;;;;4.95;1.95;;;;;;;9.64;69.77;94050.75;5011945;28;20056;-63
2022/04/08 07:40:42;;;;;;;5.47;1.60;;;;;;;9.14;69.92;94018.16;5025814;28;20025;-63
2022/04/08 07:43:07;;;;;;;3.67;1.40;;;;;;;9.07;70.54;94098.25;5031659;28;20025;-63
2022/04/08 07:45:33;;;;;;;5.30;1.60;;;;;;;8.91;72.18;94065.41;5031683;28;20488;-62
2022/04/08 07:47:59;;;;;;;5.50;2.58;;;;;;;8.95;70.85;94024.66;5031352;28;20036;-63
2022/04/08 07:50:26;;;;;;;3.65;1.80;;;;;;;9.36;68.36;93981.47;5031220;28;20386;-64
2022/04/08 07:52:52;;;;;;;4.82;1.65;;;;;;;10.09;67.58;94050.06;5031547;28;20079;-61
2022/04/08 07:55:20;;;;;;;5.88;1.83;;;;;;;8.96;68.98;93928.09;5030589;28;20025;-62
2022/04/08 07:57:51;;;;;;;5.93;1.60;;;;;;;9.76;68.29;93954.44;5031477;28;20043;-61
2022/04/08 08:00:21;;;;;;;4.25;1.73;;;;;;;9.81;67.12;93897.69;5031148;28;20041;-64
2022/04/08 08:02:48;;;;;;;4.78;1.75;;;;;;;10.43;67.59;94010.19;5031415;28;20027;-63
2022/04/08 08:05:13;;;;;;;5.10;1.67;;;;;;;9.80;65.88;93904.88;5031540;28;20049;-61
2022/04/08 08:07:46;;;;;;;6.35;1.95;;;;;;;11.47;65.79;94102.06;5013543;28;20080;-63
2022/04/08 08:10:19;;;;;;;4.18;1.58;;;;;;;10.73;66.77;94117.97;5030009;28;20056;-62
2022/04/08 08:12:46;;;;;;;5.35;2.00;;;;;;;9.95;66.76;93929.25;5031214;28;20417;-63
2022/04/08 08:15:12;;;;;;;5.43;1.95;;;;;;;10.65;66.31;94021.22;5031191;28;20041;-63
2022/04/08 08:17:39;;;;;;;2.63;1.42;;;;;;;11.31;65.49;94080.63;5031051;28;20030;-63
2022/04/08 08:20:06;;;;;;;3.15;1.52;;;;;;;10.31;68.09;94080.06;5013033;28;20032;-63
2022/04/08 08:22:32;;;;;;;5.40;1.70;;;;;;;10.77;64.65;94055.03;5030875;28;20036;-63
2022/04/08 08:24:57;;;;;;;2.72;1.50;;;;;;;10.35;66.94;93980.75;5029803;28;20041;-62
2022/04/08 08:27:23;;;;;;;5.47;1.73;;;;;;;11.13;65.31;94072.88;5031003;28;20029;-63
2022/04/08 08:29:49;;;;;;;4.18;1.83;;;;;;;10.63;64.12;93881.69;5030930;28;20026;-62
2022/04/08 08:32:14;;;;;;;7.35;2.08;;;;;;;11.77;64.19;93958.69;5012965;28;20072;-62
2022/04/08 08:34:39;;;;;;;4.97;1.95;;;;;;;10.68;64.46;93860.19;5030955;28;20063;-62
2022/04/08 08:37:05;;;;;;;5.00;1.33;;;;;;;10.06;62.55;93835.50;5030807;28;20474;-62
2022/04/08 08:39:30;;;;;;;5.20;1.50;;;;;;;10.67;61.97;93917.94;5030123;28;20091;-63
2022/04/08 08:41:57;;;;;;;2.88;1.27;;;;;;;10.68;64.29;93916.81;5030666;28;20151;-62
2022/04/08 08:44:22;;;;;;;8.35;2.42;;;;;;;10.82;63.08;93892.53;5030811;28;20474;-62
2022/04/08 08:46:49;;;;;;;4.18;1.48;;;;;;;11.71;61.60;93947.50;5030564;28;20033;-62
2022/04/08 08:49:19;;;;;;;4.47;1.35;;;;;;;10.76;62.15;93915.16;5030801;28;20509;-62
2022/04/08 08:51:55;;;;;;;3.75;1.50;;;;;;;11.91;63.22;93881.84;5030597;28;20030;-62
2022/04/08 08:54:20;;;;;;;5.10;1.90;;;;;;;12.77;62.60;93843.84;5030639;28;20014;-62
2022/04/08 08:56:46;;;;;;;2.63;1.23;;;;;;;11.32;58.26;93846.06;5029789;28;20030;-63
2022/04/08 08:59:11;;;;;;;3.22;1.30;;;;;;;11.78;61.69;93949.63;5030482;28;20026;-62
2022/04/08 09:01:36;;;;;;;5.05;1.50;;;;;;;12.91;61.09;93938.31;5033547;28;20061;-62
2022/04/08 09:04:02;;;;;;;2.60;1.33;;;;;;;12.05;60.57;93812.13;5034658;28;20466;-63
2022/04/08 09:06:28;;;;;;;5.50;1.30;;;;;;;14.31;58.49;94025.56;5034530;28;20374;-62
2022/04/08 09:08:58;;;;;;;4.50;1.35;;;;;;;12.73;55.83;93857.88;5034693;28;20025;-62
2022/04/08 09:11:27;;;;;;;4.10;1.75;;;;;;;13.10;57.77;93966.19;5033297;28;20025;-62
2022/04/08 09:14:00;;;;;;;4.40;1.50;;;;;;;12.18;57.40;93906.88;5034443;28;20025;-62
2022/04/08 09:16:29;;;;;;;3.92;1.63;;;;;;;12.87;60.01;94014.88;5034455;28;20025;-62
2022/04/08 09:18:55;;;;;;;3.78;1.75;;;;;;;13.93;59.05;93970.22;5034320;28;20021;-64
2022/04/08 09:21:25;;;;;;;4.25;1.42;;;;;;;14.97;57.90;93991.53;5033928;28;20518;-63
2022/04/08 09:23:51;;;;;;;4.25;1.10;;;;;;;14.85;54.67;93903.38;5034520;28;20161;-63
2022/04/08 09:26:17;;;;;;;4.00;1.45;;;;;;;14.61;54.23;94006.25;5033566;28;20029;-64
2022/04/08 09:28:43;;;;;;;5.72;1.40;;;;;;;14.94;54.67;93892.41;5034193;28;20022;-64
2022/04/08 09:31:19;;;;;;;4.47;1.33;;;;;;;16.05;52.97;93943.56;5034033;28;20100;-64
2022/04/08 09:33:52;;;;;;;2.17;1.50;;;;;;;16.61;51.38;93934.50;5034096;28;20028;-64
2022/04/08 09:36:30;;;;;;;4.50;1.30;;;;;;;17.33;49.83;93943.09;5034055;28;20112;-64
2022/04/08 09:38:56;;;;;;;2.67;1.13;;;;;;;18.11;49.30;93953.44;5034324;28;20581;-64
2022/04/08 09:41:37;;;;;;;4.45;1.40;;;;;;;18.12;47.09;93930.78;5032595;28;20671;-64
2022/04/08 09:44:03;;;;;;;3.03;1.30;;;;;;;17.70;46.47;93864.13;5033990;28;20029;-64
2022/04/08 09:46:29;;;;;;;3.22;1.25;;;;;;;18.18;45.66;93907.72;5034113;28;20024;-66
2022/04/08 09:48:54;;;;;;;3.28;1.20;;;;;;;18.44;44.62;93912.75;5033894;28;20105;-67
2022/04/08 09:51:21;;;;;;;3.80;1.10;;;;;;;17.51;43.91;93753.09;5033634;28;20104;-69
2022/04/08 09:54:06;;;;;;;3.92;1.63;;;;;;;17.82;43.79;93791.22;5033682;28;20038;-65
2022/04/08 09:56:34;;;;;;;4.60;1.33;;;;;;;17.76;43.68;93776.59;5020598;28;20022;-66
2022/04/08 09:59:05;;;;;;;2.35;1.30;;;;;;;19.01;43.45;93911.25;5014010;28;20030;-64
2022/04/08 10:01:31;;;;;;;5.55;1.63;;;;;;;17.99;43.40;93747.41;5013432;28;20021;-66
2022/04/08 10:03:57;;;;;;;3.92;1.40;;;;;;;19.23;43.40;93912.75;4996278;28;20085;-65
2022/04/08 10:06:24;;;;;;;3.50;1.33;;;;;;;18.87;42.15;93820.41;5013908;28;20088;-65
2022/04/08 10:08:50;;;;;;;1.67;0.82;;;;;;;19.61;42.13;93827.53;5013737;28;20056;-65
2022/04/08 10:11:28;;;;;;;2.40;1.30;;;;;;;19.69;41.08;93837.09;5021908;28;20033;-65
2022/04/08 10:14:34;;;;;;;3.63;1.10;;;;;;;18.61;41.44;93693.09;5033511;28;20017;-67
2022/04/08 10:17:00;;;;;;;4.75;1.27;;;;;;;19.99;41.30;93876.25;5028555;28;20041;-67
2022/04/08 10:19:28;;;;;;;2.20;1.30;;;;;;;19.11;40.54;93721.81;5033343;28;20040;-67
2022/04/08 10:21:55;;;;;;;1.98;1.20;;;;;;;20.16;41.72;93894.28;5033000;28;20044;-68
2022/04/08 10:24:29;;;;;;;2.97;1.67;;;;;;;19.01;41.40;93711.84;5015808;28;20082;-67
2022/04/08 10:27:09;;;;;;;1.77;1.10;;;;;;;19.20;41.84;93725.59;5032336;28;20439;-67
2022/04/08 10:29:35;;;;;;;1.98;1.15;;;;;;;18.92;42.25;93706.84;5033001;28;20543;-63
2022/04/08 10:32:13;;;;;;;3.33;1.50;;;;;;;18.97;42.37;93706.47;5032644;28;20463;-65
2022/04/08 10:34:38;;;;;;;2.67;1.50;;;;;;;18.72;42.22;93654.59;5033112;28;20056;-65
2022/04/08 10:37:19;;;;;;;1.45;1.17;;;;;;;18.96;41.92;93665.28;5032794;28;20551;-65
2022/04/08 10:39:58;;;;;;;1.42;1.05;;;;;;;19.39;42.09;93677.72;5032916;28;20382;-64
2022/04/08 10:42:24;;;;;;;1.40;0.75;;;;;;;19.68;41.51;93681.81;5031496;28;20026;-65
2022/04/08 10:44:50;;;;;;;1.42;1.00;;;;;;;20.38;40.68;93783.44;5032890;28;20099;-64
2022/04/08 10:47:17;;;;;;;2.22;1.42;;;;;;;20.40;41.24;93798.06;5032867;28;20021;-65
2022/04/08 10:49:53;;;;;;;2.33;1.60;;;;;;;20.44;41.61;93790.69;5032719;28;20612;-65
2022/04/08 10:52:22;;;;;;;2.22;1.10;;;;;;;20.12;42.34;93772.06;5032369;28;20112;-66
2022/04/08 10:55:02;;;;;;;3.17;0.90;;;;;;;20.12;42.83;93776.72;5032707;28;20036;-66
2022/04/08 10:57:41;;;;;;;2.70;1.10;;;;;;;19.53;43.38;93755.84;5031868;28;20113;-66
2022/04/08 11:00:12;;;;;;;2.28;1.10;;;;;;;19.46;44.54;93767.47;5032161;28;20123;-67
2022/04/08 11:02:39;;;;;;;2.00;1.27;;;;;;;19.06;45.08;93749.16;5032384;28;20021;-66
2022/04/08 11:05:06;;;;;;;1.50;1.23;;;;;;;19.13;45.48;93762.59;5032240;28;20025;-67
2022/04/08 11:07:32;;;;;;;1.88;1.20;;;;;;;18.77;46.33;93754.63;5014729;28;20053;-66
2022/04/08 11:09:58;;;;;;;2.55;1.60;;;;;;;18.75;46.90;93748.88;5032496;28;20060;-67
2022/04/08 11:12:25;;;;;;;1.95;1.50;;;;;;;18.88;46.82;93708.78;5013226;28;20478;-66
2022/04/08 11:14:58;;;;;;;3.45;1.30;;;;;;;19.03;46.42;93715.66;5014582;28;20458;-67
2022/04/08 11:17:33;;;;;;;2.00;1.23;;;;;;;19.33;46.43;93709.75;5014606;28;20033;-66
2022/04/08 11:19:59;;;;;;;2.83;1.52;;;;;;;19.23;46.45;93691.69;5032507;28;20103;-67
2022/04/08 11:22:26;;;;;;;2.35;1.77;;;;;;;19.23;46.85;93697.84;5031637;28;20088;-67
2022/04/08 11:24:56;;;;;;;2.88;1.38;;;;;;;19.29;45.98;93667.78;5014134;28;20033;-61
2022/04/08 11:27:22;;;;;;;2.95;1.15;;;;;;;19.88;46.26;93727.13;5031236;28;20398;-63
2022/04/08 11:29:47;;;;;;;1.42;1.30;;;;;;;20.14;46.41;93720.38;5031812;28;20030;-63
2022/04/08 11:32:13;;;;;;;1.60;1.10;;;;;;;19.62;45.83;93582.81;5031092;28;20466;-63
2022/04/08 11:34:40;;;;;;;1.58;1.02;;;;;;;20.50;44.64;93686.50;5032116;28;20025;-62
2022/04/08 11:37:06;;;;;;;1.58;1.45;;;;;;;20.49;44.34;93616.69;5031630;28;20523;-63